Time;durP1;ratioP1;P1;durP2;ratioP2;P2;SDS_P1;SDS_P2;PMS_P1;PMS_P2;Temp;Humidity;BMP_temperature;BMP_pressure;BME280_temperature;BME280_humidity;BME280_pressure;Samples;Min_cycle;Max_cycle;Signal;HPM_P1;HPM_P2
2023/05/06 00:01:14;;;;;;;16.52;12.23;;;12.40;99.90;;;;;;6215279;23;20020;-91
2023/05/06 00:03:40;;;;;;;19.63;13.77;;;12.40;99.90;;;;;;6215092;23;20024;-91
2023/05/06 00:06:08;;;;;;;15.50;11.00;;;12.40;99.90;;;;;;6215694;23;20030;-90
2023/05/06 00:08:34;;;;;;;16.38;11.52;;;12.50;99.90;;;;;;6215437;23;20094;-91
2023/05/06 00:11:00;;;;;;;16.55;11.48;;;12.40;99.90;;;;;;6216020;23;20070;-91
2023/05/06 00:13:29;;;;;;;14.95;11.05;;;12.50;99.90;;;;;;6216515;23;20368;-90
2023/05/06 00:15:55;;;;;;;11.98;9.63;;;12.40;99.90;;;;;;6215786;23;20024;-91
2023/05/06 00:18:21;;;;;;;12.88;10.48;;;12.40;99.90;;;;;;6215118;23;20016;-90
2023/05/06 00:20:47;;;;;;;20.02;12.35;;;12.40;99.90;;;;;;6215505;23;20016;-90
2023/05/06 00:23:13;;;;;;;15.07;10.30;;;12.30;99.90;;;;;;6216377;23;20062;-91
2023/05/06 00:25:39;;;;;;;15.18;10.90;;;12.30;99.90;;;;;;6215000;23;20044;-90
2023/05/06 00:28:04;;;;;;;20.45;11.90;;;12.20;99.90;;;;;;6216003;23;20012;-89
2023/05/06 00:30:30;;;;;;;20.98;12.07;;;12.20;99.90;;;;;;6215668;23;20135;-90
2023/05/06 00:32:56;;;;;;;16.63;10.27;;;12.10;99.90;;;;;;6216462;23;20016;-90
2023/05/06 00:35:21;;;;;;;16.27;11.70;;;12.10;99.90;;;;;;6214519;23;20075;-90
2023/05/06 00:37:56;;;;;;;14.10;11.05;;;12.00;99.90;;;;;;6215444;23;20028;-90
2023/05/06 00:40:22;;;;;;;11.77;9.27;;;12.00;99.90;;;;;;6215359;23;20039;-90
2023/05/06 00:42:48;;;;;;;13.65;9.70;;;11.90;99.90;;;;;;6215288;23;20028;-90
2023/05/06 00:45:14;;;;;;;13.88;10.43;;;11.90;99.90;;;;;;6215331;23;20016;-91
2023/05/06 00:47:40;;;;;;;14.07;9.05;;;11.80;99.90;;;;;;6215338;23;20051;-90
2023/05/06 00:50:07;;;;;;;12.90;8.75;;;11.80;99.90;;;;;;6215789;23;20016;-91
2023/05/06 00:52:33;;;;;;;13.07;8.88;;;11.70;99.90;;;;;;6214921;23;20345;-92
2023/05/06 00:54:58;;;;;;;14.63;9.88;;;11.60;99.90;;;;;;6215688;23;20126;-92
2023/05/06 00:57:24;;;;;;;63.95;12.85;;;11.60;99.90;;;;;;6215197;23;20024;-90
2023/05/06 00:59:50;;;;;;;23.88;11.40;;;11.60;99.90;;;;;;6215163;23;20019;-90
2023/05/06 01:02:16;;;;;;;99.00;15.10;;;11.60;99.90;;;;;;6215413;23;20467;-91
2023/05/06 01:04:42;;;;;;;133.65;13.80;;;11.60;99.90;;;;;;6215768;23;20028;-90
2023/05/06 01:07:30;;;;;;;37.60;11.88;;;11.60;99.90;;;;;;6222459;23;20044;-91
2023/05/06 01:10:12;;;;;;;12.75;10.35;;;11.60;99.90;;;;;;6215577;23;20055;-91
2023/05/06 01:12:59;;;;;;;18.20;11.60;;;11.60;99.90;;;;;;6215791;23;20020;-91
2023/05/06 01:15:45;;;;;;;15.10;10.98;;;11.60;99.90;;;;;;6216000;23;20362;-91
2023/05/06 01:18:16;;;;;;;13.13;10.18;;;11.60;99.90;;;;;;6216010;23;20020;-92
2023/05/06 01:20:45;;;;;;;12.43;9.95;;;11.70;99.90;;;;;;6214218;23;20034;-92
2023/05/06 01:23:13;;;;;;;17.75;11.07;;;11.70;99.90;;;;;;6215157;23;20091;-91
2023/05/06 01:25:39;;;;;;;20.08;12.27;;;11.70;99.90;;;;;;6214543;23;20375;-91
2023/05/06 01:28:09;;;;;;;17.00;9.93;;;11.70;99.90;;;;;;6215150;23;20519;-90
2023/05/06 01:30:54;;;;;;;16.30;11.50;;;11.70;99.90;;;;;;6214286;23;20019;-91
2023/05/06 01:33:36;;;;;;;21.65;10.63;;;11.30;99.90;;;;;;6214436;23;20012;-91
2023/05/06 01:36:15;;;;;;;14.52;9.68;;;11.70;99.90;;;;;;6215077;23;20016;-91
2023/05/06 01:39:07;;;;;;;14.65;8.93;;;11.70;99.90;;;;;;6214874;23;20024;-91
2023/05/06 01:41:35;;;;;;;19.75;11.15;;;11.80;99.90;;;;;;6214174;23;20020;-91
2023/05/06 01:44:02;;;;;;;20.77;10.27;;;11.80;99.90;;;;;;6215759;23;20100;-92
2023/05/06 01:46:32;;;;;;;12.73;8.85;;;11.80;99.90;;;;;;6214708;23;20040;-90
2023/05/06 01:49:02;;;;;;;15.10;9.40;;;11.70;99.90;;;;;;6215503;23;20103;-92
2023/05/06 01:51:28;;;;;;;14.15;9.43;;;11.70;99.90;;;;;;6214816;23;20092;-91
2023/05/06 01:53:54;;;;;;;17.45;9.88;;;11.80;99.90;;;;;;6215119;23;20346;-92
2023/05/06 01:56:20;;;;;;;16.73;8.10;;;11.80;99.90;;;;;;6214011;23;20090;-92
2023/05/06 01:58:46;;;;;;;12.95;9.50;;;11.80;99.90;;;;;;6215702;23;20049;-92
2023/05/06 02:01:14;;;;;;;14.30;9.32;;;11.80;99.90;;;;;;6214415;23;20016;-92
2023/05/06 02:03:40;;;;;;;18.23;10.32;;;11.80;99.90;;;;;;6214640;23;20024;-92
2023/05/06 02:06:06;;;;;;;13.25;9.15;;;11.70;99.90;;;;;;6214732;23;20034;-91
2023/05/06 02:08:33;;;;;;;10.90;8.57;;;11.70;99.90;;;;;;6215193;23;20012;-91
2023/05/06 02:10:59;;;;;;;14.50;7.95;;;11.60;99.90;;;;;;6214203;23;20550;-91
2023/05/06 02:13:24;;;;;;;13.65;8.18;;;11.50;99.90;;;;;;6214480;23;20043;-91
2023/05/06 02:15:54;;;;;;;302.27;14.90;;;11.40;99.90;;;;;;6214951;23;20042;-91
2023/05/06 02:18:21;;;;;;;6.63;4.65;;;11.40;99.90;;;;;;6213842;23;20016;-91
2023/05/06 02:20:46;;;;;;;14.25;7.03;;;11.30;99.90;;;;;;6215057;23;20057;-91
2023/05/06 02:23:20;;;;;;;10.35;7.57;;;11.20;99.90;;;;;;6214535;23;20020;-92
2023/05/06 02:25:46;;;;;;;11.75;7.57;;;11.10;99.90;;;;;;6215601;23;20027;-89
2023/05/06 02:28:15;;;;;;;6.20;4.22;;;11.00;99.90;;;;;;6214800;23;20039;-92
2023/05/06 02:30:41;;;;;;;8.77;6.10;;;10.90;99.90;;;;;;6214848;23;20016;-91
2023/05/06 02:33:06;;;;;;;11.63;5.22;;;10.80;99.90;;;;;;6215204;23;20112;-90
2023/05/06 02:35:32;;;;;;;13.93;8.57;;;10.80;99.90;;;;;;6214604;23;20035;-92
2023/05/06 02:37:58;;;;;;;16.25;7.95;;;10.70;99.90;;;;;;6214599;23;20107;-91
2023/05/06 02:40:24;;;;;;;12.07;8.23;;;10.40;99.90;;;;;;6215422;23;20321;-90
2023/05/06 02:42:50;;;;;;;43.05;10.85;;;10.70;99.90;;;;;;6215303;23;20028;-91
2023/05/06 02:45:15;;;;;;;13.93;8.32;;;10.60;99.90;;;;;;6215470;23;20020;-91
2023/05/06 02:47:41;;;;;;;38.22;9.18;;;10.50;99.90;;;;;;6217028;23;20024;-92
2023/05/06 02:50:07;;;;;;;112.22;8.68;;;10.50;99.90;;;;;;6217933;23;20368;-91
2023/05/06 02:52:33;;;;;;;101.25;8.32;;;10.40;99.90;;;;;;6215979;23;20051;-90
2023/05/06 02:55:00;;;;;;;102.28;6.20;;;10.40;99.90;;;;;;6217673;23;20444;-90
2023/05/06 02:57:26;;;;;;;101.53;4.93;;;10.40;99.90;;;;;;6216246;23;20445;-91
2023/05/06 02:59:51;;;;;;;54.92;4.35;;;10.30;99.90;;;;;;6217086;23;20016;-91
2023/05/06 03:02:17;;;;;;;44.97;4.45;;;10.40;99.90;;;;;;6216396;23;20020;-90
2023/05/06 03:04:43;;;;;;;91.25;6.70;;;10.30;99.90;;;;;;6216754;23;20091;-91
2023/05/06 03:07:09;;;;;;;174.40;7.70;;;10.30;99.90;;;;;;6216428;23;20445;-90
2023/05/06 03:09:34;;;;;;;122.07;6.68;;;10.20;99.90;;;;;;6216914;23;20024;-89
2023/05/06 03:12:01;;;;;;;43.60;5.57;;;10.20;99.90;;;;;;6216393;23;20381;-90
2023/05/06 03:14:27;;;;;;;28.00;6.47;;;10.20;99.90;;;;;;6216231;23;20012;-91
2023/05/06 03:16:59;;;;;;;18.33;7.90;;;10.10;99.90;;;;;;6219271;23;20034;-91
2023/05/06 03:19:28;;;;;;;182.10;9.97;;;10.10;99.90;;;;;;6216815;23;20012;-91
2023/05/06 03:21:53;;;;;;;35.25;6.18;;;10.20;99.90;;;;;;6217398;23;20020;-91
2023/05/06 03:24:19;;;;;;;95.53;9.10;;;10.10;99.90;;;;;;6217052;23;20023;-91
2023/05/06 03:26:45;;;;;;;54.70;6.07;;;10.10;99.90;;;;;;6216096;23;20059;-91
2023/05/06 03:29:10;;;;;;;62.70;4.75;;;10.10;99.90;;;;;;6217191;23;20541;-91
2023/05/06 03:31:36;;;;;;;168.20;7.95;;;10.10;99.90;;;;;;6215399;23;20322;-91
2023/05/06 03:34:02;;;;;;;117.30;6.40;;;10.10;99.90;;;;;;6216496;23;20023;-90
2023/05/06 03:36:28;;;;;;;55.80;6.50;;;10.10;99.90;;;;;;6215726;23;20020;-91
2023/05/06 03:38:57;;;;;;;38.85;3.47;;;10.10;99.90;;;;;;6217087;23;20055;-90
2023/05/06 03:41:23;;;;;;;22.77;4.75;;;10.10;99.90;;;;;;6214914;23;20019;-90
2023/05/06 03:43:49;;;;;;;53.55;4.65;;;10.10;99.90;;;;;;6215875;23;20499;-90
2023/05/06 03:46:15;;;;;;;35.50;4.00;;;10.10;99.90;;;;;;6215874;23;20054;-89
2023/05/06 03:48:41;;;;;;;42.03;3.17;;;10.10;99.90;;;;;;6214936;23;20413;-89
2023/05/06 03:51:06;;;;;;;6.18;1.75;;;10.10;99.90;;;;;;6215199;23;20043;-89
2023/05/06 03:53:32;;;;;;;99.80;6.38;;;10.10;99.90;;;;;;6216170;23;20016;-90
2023/05/06 03:55:58;;;;;;;46.80;6.30;;;10.10;99.90;;;;;;6218027;22;20091;-89
2023/05/06 03:58:24;;;;;;;43.38;7.85;;;10.10;99.90;;;;;;6220444;22;20081;-89
2023/05/06 04:00:49;;;;;;;50.63;8.10;;;10.10;99.90;;;;;;6220213;22;20454;-89
2023/05/06 04:03:15;;;;;;;172.23;12.88;;;10.10;99.90;;;;;;6220305;22;20016;-89
2023/05/06 04:05:41;;;;;;;117.03;9.23;;;10.10;99.90;;;;;;6220609;22;20011;-89
2023/05/06 04:08:06;;;;;;;120.55;8.43;;;10.20;99.90;;;;;;6220704;22;20008;-89
2023/05/06 04:10:37;;;;;;;143.88;8.30;;;10.20;99.90;;;;;;6220118;22;20035;-90
2023/05/06 04:13:03;;;;;;;139.07;8.30;;;10.20;99.90;;;;;;6220841;22;20039;-90
2023/05/06 04:15:36;;;;;;;98.95;7.30;;;10.20;99.90;;;;;;6221044;22;20377;-90
2023/05/06 04:18:02;;;;;;;49.90;6.43;;;10.20;99.90;;;;;;6221168;22;20016;-90
2023/05/06 04:20:28;;;;;;;97.30;7.55;;;10.20;99.90;;;;;;6220704;22;20019;-90
2023/05/06 04:22:53;;;;;;;45.65;6.80;;;10.20;99.90;;;;;;6220334;22;20059;-89
2023/05/06 04:25:20;;;;;;;77.43;5.38;;;10.30;99.90;;;;;;6221706;22;20012;-91
2023/05/06 04:27:45;;;;;;;30.35;4.10;;;10.20;99.90;;;;;;6221726;22;20020;-90
2023/05/06 04:30:14;;;;;;;68.60;4.90;;;10.20;99.90;;;;;;6219854;22;20026;-91
2023/05/06 04:32:40;;;;;;;80.97;5.55;;;10.20;99.90;;;;;;6220376;22;20020;-89
2023/05/06 04:35:06;;;;;;;25.10;3.75;;;10.20;99.90;;;;;;6220955;22;20459;-90
2023/05/06 04:37:34;;;;;;;22.33;4.60;;;10.10;99.90;;;;;;6219681;22;20325;-90
2023/05/06 04:40:01;;;;;;;17.95;5.22;;;10.10;99.90;;;;;;6221742;22;20093;-91
2023/05/06 04:42:27;;;;;;;27.35;5.50;;;10.20;99.90;;;;;;6220324;22;20012;-90
2023/05/06 04:44:52;;;;;;;11.55;5.13;;;10.20;99.90;;;;;;6219883;22;20462;-89
2023/05/06 04:47:27;;;;;;;19.58;5.65;;;10.20;99.90;;;;;;6219664;22;20050;-93
2023/05/06 04:49:53;;;;;;;6.20;5.03;;;10.30;99.90;;;;;;6220833;22;20024;-89
2023/05/06 04:52:19;;;;;;;5.43;4.65;;;10.40;99.90;;;;;;6218407;22;20073;-89
2023/05/06 04:54:45;;;;;;;8.48;5.45;;;10.40;99.90;;;;;;6220647;22;20329;-88
2023/05/06 04:57:11;;;;;;;6.45;4.35;;;10.50;99.90;;;;;;6218126;22;20035;-90
2023/05/06 04:59:37;;;;;;;6.20;4.88;;;10.50;99.90;;;;;;6220384;22;20016;-91
2023/05/06 05:02:03;;;;;;;9.30;5.32;;;10.60;99.90;;;;;;6220221;22;20101;-89
2023/05/06 05:04:28;;;;;;;7.68;6.25;;;10.70;99.90;;;;;;6219829;22;20027;-89
2023/05/06 05:06:54;;;;;;;7.20;5.95;;;10.70;99.90;;;;;;6219663;22;20065;-89
2023/05/06 05:09:20;;;;;;;9.35;7.10;;;10.80;99.90;;;;;;6219133;22;20030;-86
2023/05/06 05:11:46;;;;;;;8.80;6.80;;;10.80;99.90;;;;;;6220192;22;20122;-89
2023/05/06 05:14:11;;;;;;;12.20;7.97;;;10.90;99.90;;;;;;6219437;22;20015;-88
2023/05/06 05:16:37;;;;;;;13.35;9.60;;;11.00;99.90;;;;;;6218369;22;20444;-90
2023/05/06 05:19:13;;;;;;;18.23;10.95;;;11.10;99.90;;;;;;6219724;22;20506;-89
2023/05/06 05:21:39;;;;;;;19.23;9.95;;;11.00;99.90;;;;;;6220136;22;20839;-90
2023/05/06 05:24:05;;;;;;;39.35;11.48;;;11.10;99.90;;;;;;6221433;22;20020;-90
2023/05/06 05:26:31;;;;;;;13.35;10.52;;;11.20;99.90;;;;;;6219399;22;20456;-91
2023/05/06 05:28:56;;;;;;;16.77;9.57;;;11.30;99.90;;;;;;6223813;22;20027;-91
2023/05/06 05:31:23;;;;;;;41.33;13.20;;;11.40;99.90;;;;;;6219303;22;20016;-90
2023/05/06 05:33:48;;;;;;;40.38;11.50;;;11.50;99.90;;;;;;6219850;22;20050;-90
2023/05/06 05:36:17;;;;;;;28.98;11.48;;;11.70;99.90;;;;;;6219570;22;20016;-91
2023/05/06 05:38:43;;;;;;;16.00;11.60;;;11.70;99.90;;;;;;6219916;22;20019;-90
2023/05/06 05:41:09;;;;;;;17.08;11.18;;;11.80;99.90;;;;;;6219502;22;20328;-89
2023/05/06 05:43:37;;;;;;;13.63;10.38;;;11.90;99.90;;;;;;6220205;22;20030;-90
2023/05/06 05:46:03;;;;;;;18.65;11.63;;;11.90;99.90;;;;;;6220190;22;20073;-91
2023/05/06 05:48:31;;;;;;;15.75;11.43;;;12.00;99.90;;;;;;6218460;22;20027;-92
2023/05/06 05:50:57;;;;;;;17.00;11.60;;;12.10;99.90;;;;;;6220435;22;20019;-92
2023/05/06 05:53:23;;;;;;;15.88;11.75;;;12.10;99.90;;;;;;6219459;22;20102;-90
2023/05/06 05:55:55;;;;;;;20.20;12.20;;;12.20;99.90;;;;;;6219449;22;20061;-90
2023/05/06 05:58:22;;;;;;;16.15;11.75;;;12.10;99.90;;;;;;6220222;22;20188;-90
2023/05/06 06:00:48;;;;;;;17.35;12.57;;;12.20;99.90;;;;;;6220330;22;20440;-92
2023/05/06 06:03:14;;;;;;;18.27;11.60;;;12.20;99.90;;;;;;6220191;22;20464;-90
2023/05/06 06:05:51;;;;;;;18.88;12.13;;;12.20;99.90;;;;;;6219533;22;20456;-90
2023/05/06 06:08:17;;;;;;;14.93;11.05;;;12.00;99.90;;;;;;6220348;22;20091;-90
2023/05/06 06:10:52;;;;;;;16.15;11.57;;;12.30;99.90;;;;;;6220351;22;20146;-90
2023/05/06 06:13:18;;;;;;;17.48;11.57;;;12.30;99.90;;;;;;6219874;22;20024;-91
2023/05/06 06:15:52;;;;;;;21.30;12.55;;;12.40;99.90;;;;;;6219519;22;20012;-91
2023/05/06 06:18:36;;;;;;;16.25;11.70;;;12.40;99.90;;;;;;6220290;22;20020;-91
2023/05/06 06:21:04;;;;;;;19.65;12.30;;;12.40;99.90;;;;;;6220045;22;20110;-89
2023/05/06 06:23:30;;;;;;;21.42;14.00;;;12.40;99.90;;;;;;6219503;22;20024;-91
2023/05/06 06:25:56;;;;;;;21.02;12.77;;;12.50;99.90;;;;;;6219897;22;20034;-90
2023/05/06 06:28:25;;;;;;;17.10;12.48;;;12.50;99.90;;;;;;6218593;22;20071;-91
2023/05/06 06:30:50;;;;;;;18.58;12.60;;;12.50;99.90;;;;;;6218475;22;20042;-90
2023/05/06 06:33:16;;;;;;;22.75;13.00;;;12.50;99.90;;;;;;6221132;22;20015;-90
2023/05/06 06:36:08;;;;;;;16.77;11.52;;;12.60;99.90;;;;;;6220366;22;20015;-93
2023/05/06 06:38:31;;;;;;;17.70;11.65;;;12.60;99.90;;;;;;6242643;22;20043;-91
2023/05/06 06:40:59;;;;;;;19.08;12.88;;;12.60;99.90;;;;;;6220825;22;20012;-91
2023/05/06 06:43:37;;;;;;;20.08;12.63;;;12.60;99.90;;;;;;6247846;22;20024;-90
2023/05/06 06:46:12;;;;;;;19.25;12.65;;;12.60;99.90;;;;;;6221247;22;20020;-89
2023/05/06 06:48:38;;;;;;;18.48;11.82;;;12.70;99.90;;;;;;6221292;22;20066;-89
2023/05/06 06:51:12;;;;;;;20.38;12.15;;;12.70;99.90;;;;;;6219943;22;20016;-89
2023/05/06 06:53:49;;;;;;;20.83;13.63;;;12.70;99.90;;;;;;6220944;22;20030;-90
2023/05/06 06:56:56;;;;;;;22.35;12.85;;;12.80;99.90;;;;;;6222222;22;20024;-92
2023/05/06 06:59:54;;;;;;;18.15;12.02;;;12.90;99.90;;;;;;6201636;22;20020;-93
2023/05/06 07:02:46;;;;;;;19.77;13.10;;;12.90;99.90;;;;;;6247077;22;20016;-91
2023/05/06 07:05:09;;;;;;;18.33;13.07;;;13.30;99.90;;;;;;6245688;22;20078;-92
2023/05/06 07:07:38;;;;;;;19.38;12.30;;;12.70;99.90;;;;;;6220986;22;20023;-90
2023/05/06 07:10:30;;;;;;;19.17;13.18;;;13.10;99.90;;;;;;6220940;22;20012;-90
2023/05/06 07:12:56;;;;;;;16.45;12.50;;;13.20;99.90;;;;;;6211820;22;20015;-91
2023/05/06 07:15:40;;;;;;;18.33;12.18;;;13.20;99.90;;;;;;6219817;22;20016;-91
2023/05/06 07:18:15;;;;;;;18.63;12.40;;;13.30;99.90;;;;;;6220245;22;20027;-93
2023/05/06 07:20:58;;;;;;;18.90;12.85;;;13.30;99.90;;;;;;6218796;22;20035;-90
2023/05/06 07:23:24;;;;;;;17.30;11.82;;;13.30;99.90;;;;;;6219280;22;20020;-89
2023/05/06 07:25:50;;;;;;;20.88;13.13;;;13.40;99.90;;;;;;6218167;22;20505;-88
2023/05/06 07:28:16;;;;;;;18.42;12.98;;;13.40;99.90;;;;;;6245492;22;20452;-91
2023/05/06 07:30:44;;;;;;;18.42;12.43;;;13.40;99.90;;;;;;6219163;22;20012;-92
2023/05/06 07:33:10;;;;;;;23.73;12.10;;;13.40;99.90;;;;;;6222072;22;20095;-92
2023/05/06 07:35:36;;;;;;;17.92;12.90;;;13.40;99.90;;;;;;6221140;22;20354;-91
2023/05/06 07:38:08;;;;;;;17.05;12.18;;;13.40;99.90;;;;;;6222299;22;20015;-91
2023/05/06 07:40:34;;;;;;;23.20;15.00;;;13.50;99.90;;;;;;6221282;22;20020;-93
2023/05/06 07:43:01;;;;;;;20.50;14.07;;;13.50;99.90;;;;;;6222793;22;20089;-92
2023/05/06 07:45:26;;;;;;;20.65;14.60;;;13.50;99.90;;;;;;6222496;22;20019;-92
2023/05/06 07:47:57;;;;;;;19.35;13.50;;;13.50;99.90;;;;;;6221643;22;20016;-92
2023/05/06 07:51:23;;;;;;;;;;;;;;;;;;;;;
2023/05/06 07:54:23;;;;;;;18.92;13.77;;;13.50;99.90;;;;;;6208829;22;20081;-91
2023/05/06 07:57:14;;;;;;;18.65;13.35;;;13.60;99.90;;;;;;6216877;23;20020;-93
2023/05/06 07:59:50;;;;;;;19.27;13.10;;;13.80;99.90;;;;;;6216833;23;20086;-94
2023/05/06 08:02:47;;;;;;;;;;;;;;;;;;;;;
2023/05/06 08:05:25;;;;;;;18.83;12.55;;;13.30;99.90;;;;;;6243706;23;20020;-93
2023/05/06 08:07:51;;;;;;;22.02;12.88;;;14.00;99.90;;;;;;6218336;23;20058;-92
2023/05/06 08:10:39;;;;;;;17.38;12.27;;;14.10;99.90;;;;;;6217542;23;20031;-94
2023/05/06 08:13:05;;;;;;;19.48;13.30;;;14.30;99.90;;;;;;6218013;23;20016;-92
2023/05/06 08:15:31;;;;;;;16.65;12.55;;;14.40;99.90;;;;;;6217454;23;20090;-92
2023/05/06 08:17:56;;;;;;;17.60;13.10;;;14.50;99.90;;;;;;6217363;23;20047;-91
2023/05/06 08:20:22;;;;;;;17.15;12.23;;;14.70;99.90;;;;;;6216964;23;20066;-91
2023/05/06 08:22:48;;;;;;;17.15;12.50;;;14.80;99.90;;;;;;6217740;23;20024;-91
2023/05/06 08:25:14;;;;;;;17.05;12.10;;;14.80;99.90;;;;;;6216758;23;20337;-90
2023/05/06 08:27:39;;;;;;;18.55;12.02;;;14.90;99.90;;;;;;6217767;23;20456;-93
2023/05/06 08:30:06;;;;;;;15.32;11.75;;;15.10;99.90;;;;;;6217396;23;20012;-92
2023/05/06 08:32:32;;;;;;;19.52;12.23;;;15.30;99.90;;;;;;6217669;23;20020;-90
2023/05/06 08:34:59;;;;;;;18.90;12.48;;;15.50;99.90;;;;;;6217595;23;20023;-89
2023/05/06 08:37:25;;;;;;;17.80;12.25;;;15.60;99.90;;;;;;6216300;23;20105;-90
2023/05/06 08:39:51;;;;;;;18.50;11.90;;;15.70;99.90;;;;;;6217674;23;20019;-91
2023/05/06 08:42:21;;;;;;;15.32;10.77;;;15.80;99.90;;;;;;6216652;23;20070;-92
2023/05/06 08:44:47;;;;;;;15.75;10.30;;;15.90;99.90;;;;;;6218549;23;20058;-92
2023/05/06 08:47:17;;;;;;;15.00;10.82;;;16.10;99.90;;;;;;6216987;23;20016;-92
2023/05/06 08:49:43;;;;;;;15.10;10.70;;;16.10;99.90;;;;;;6217634;23;20046;-91
2023/05/06 08:52:10;;;;;;;15.95;10.43;;;16.20;99.90;;;;;;6217124;23;20043;-90
2023/05/06 08:54:39;;;;;;;11.70;8.57;;;16.30;99.90;;;;;;6218068;23;20020;-91
2023/05/06 08:57:09;;;;;;;13.23;9.60;;;16.40;99.90;;;;;;6216129;23;20472;-92
2023/05/06 08:59:50;;;;;;;;;;;;;;;;;;;;;
2023/05/06 09:03:32;;;;;;;13.80;8.25;;;16.40;99.90;;;;;;6241169;23;20034;-93
2023/05/06 09:05:35;;;;;;;14.77;8.93;;;16.20;99.90;;;;;;6215312;23;20046;-93
2023/05/06 09:08:26;;;;;;;11.50;7.80;;;16.40;99.90;;;;;;6216075;23;20012;-93
2023/05/06 09:11:37;;;;;;;10.65;8.32;;;16.50;99.90;;;;;;6240749;23;20031;-93
2023/05/06 09:14:09;;;;;;;12.55;9.07;;;16.60;99.90;;;;;;6218584;23;20123;-93
2023/05/06 09:17:24;;;;;;;;;;;;;;;;;;;;;
2023/05/06 09:23:39;;;;;;;11.73;8.15;;;17.00;99.90;;;;;;6061754;23;20024;-93
2023/05/06 09:30:35;;;;;;;9.88;7.60;;;17.20;99.90;;;;;;6068473;23;20024;-91
2023/05/06 09:36:57;;;;;;;;;;;;;;;;;;;;;
2023/05/06 09:48:21;;;;;;;;;;;;;;;;;;;;;
2023/05/06 09:59:04;;;;;;;;;;;;;;;;;;;;;
2023/05/06 10:17:36;;;;;;;12.70;8.50;;;18.80;99.90;;;;;;6136641;22;20452;-92
2023/05/06 10:23:55;;;;;;;;;;;;;;;;;;;;;
2023/05/06 10:27:03;;;;;;;11.45;8.45;;;18.80;99.90;;;;;;6223120;22;20019;-91
2023/05/06 10:29:50;;;;;;;13.07;9.15;;;19.00;99.90;;;;;;6242181;22;20073;-91
2023/05/06 10:32:46;;;;;;;15.23;9.57;;;19.20;99.90;;;;;;6220288;22;20015;-90
2023/05/06 10:35:56;;;;;;;;;;;;;;;;;;;;;
2023/05/06 10:47:03;;;;;;;;;;;;;;;;;;;;;
2023/05/06 10:49:50;;;;;;;;;;;;;;;;;;;;;
2023/05/06 10:53:26;;;;;;;;;;;;;;;;;;;;;
2023/05/06 10:56:41;;;;;;;;;;;;;;;;;;;;;
2023/05/06 11:00:03;;;;;;;;;;;;;;;;;;;;;
2023/05/06 11:12:21;;;;;;;;;;;;;;;;;;;;;
2023/05/06 11:23:45;;;;;;;10.40;7.07;;;20.00;99.90;;;;;;6108047;23;20065;-89
2023/05/06 11:39:28;;;;;;;;;;;;;;;;;;;;;
2023/05/06 11:49:41;;;;;;;9.25;5.63;;;20.00;99.90;;;;;;6265576;22;20146;-89
2023/05/06 11:53:45;;;;;;;;;;;;;;;;;;;;;
2023/05/06 11:56:37;;;;;;;;;;;;;;;;;;;;;
2023/05/06 12:06:08;;;;;;;15.18;4.45;;;19.30;99.90;;;;;;6132386;22;20026;-90
2023/05/06 12:09:07;;;;;;;10.95;5.00;;;19.10;99.90;;;;;;6219098;22;20055;-88
2023/05/06 12:11:56;;;;;;;;;;;;;;;;;;;;;
2023/05/06 12:15:00;;;;;;;8.68;4.45;;;18.70;99.90;;;;;;6246929;22;20042;-90
2023/05/06 12:17:36;;;;;;;;;;;;;;;;;;;;;
2023/05/06 12:20:14;;;;;;;10.48;4.95;;;18.30;99.90;;;;;;6244730;22;20030;-95
2023/05/06 12:22:40;;;;;;;8.40;4.95;;;18.10;99.90;;;;;;6218598;22;20012;-90
2023/05/06 12:25:14;;;;;;;12.75;5.45;;;17.90;99.90;;;;;;6219985;22;20028;-89
2023/05/06 12:28:02;;;;;;;;;;;;;;;;;;;;;
2023/05/06 12:30:47;;;;;;;9.65;6.53;;;17.40;99.90;;;;;;6270129;22;20027;-86
2023/05/06 12:33:43;;;;;;;12.40;7.60;;;17.30;99.90;;;;;;6217026;22;20022;-88
2023/05/06 12:36:11;;;;;;;12.98;8.73;;;17.20;99.90;;;;;;6216970;22;20026;-88
2023/05/06 12:38:37;;;;;;;16.10;8.93;;;17.10;99.90;;;;;;6216901;22;20020;-89
2023/05/06 12:41:06;;;;;;;20.13;10.13;;;16.90;99.90;;;;;;6217796;22;20058;-87
2023/05/06 12:43:45;;;;;;;19.02;10.35;;;16.80;99.90;;;;;;6244331;22;20102;-87
2023/05/06 12:46:15;;;;;;;15.15;9.50;;;17.00;99.90;;;;;;6216958;22;20020;-88
2023/05/06 12:48:59;;;;;;;18.13;10.60;;;16.60;99.90;;;;;;6242177;22;20016;-89
2023/05/06 12:52:16;;;;;;;;;;;;;;;;;;;;;
2023/05/06 12:55:05;;;;;;;19.60;8.13;;;16.30;99.90;;;;;;6268096;22;20038;-87
2023/05/06 13:05:27;;;;;;;9.25;3.45;;;15.60;99.90;;;;;;6236961;22;20165;-89
2023/05/06 13:07:56;;;;;;;7.60;3.30;;;15.30;99.90;;;;;;6217135;22;20394;-88
2023/05/06 13:10:46;;;;;;;10.55;3.55;;;15.40;99.90;;;;;;6216832;22;20022;-87
2023/05/06 13:13:11;;;;;;;11.40;3.80;;;15.20;99.90;;;;;;6243159;22;20037;-88
2023/05/06 13:15:37;;;;;;;11.75;4.65;;;15.20;99.90;;;;;;6218164;22;20459;-86
2023/05/06 13:18:34;;;;;;;12.95;5.65;;;15.20;99.90;;;;;;6220007;22;20024;-89
2023/05/06 13:22:14;;;;;;;10.18;4.93;;;15.30;99.90;;;;;;6219074;22;20058;-89
2023/05/06 13:33:47;;;;;;;13.55;5.50;;;15.60;99.90;;;;;;6208499;23;20079;-89
2023/05/06 13:36:46;;;;;;;;;;;;;;;;;;;;;
2023/05/06 13:39:47;;;;;;;11.50;4.88;;;15.70;99.90;;;;;;6181172;23;20020;-90
2023/05/06 13:43:04;;;;;;;;;;;;;;;;;;;;;
2023/05/06 13:57:25;;;;;;;;;;;;;;;;;;;;;
2023/05/06 13:59:54;;;;;;;19.17;12.85;;;16.00;99.90;;;;;;6020084;23;20015;-92
2023/05/06 14:02:19;;;;;;;18.17;13.15;;;16.10;99.90;;;;;;6017127;23;20027;-93
2023/05/06 14:04:45;;;;;;;15.98;12.75;;;16.20;99.90;;;;;;6019207;23;20078;-96
2023/05/06 14:07:23;;;;;;;14.02;10.82;;;16.20;99.90;;;;;;6086790;23;20349;-94
2023/05/06 14:10:03;;;;;;;11.05;9.43;;;16.30;99.90;;;;;;6168194;23;20079;-92
2023/05/06 14:12:32;;;;;;;14.55;9.38;;;16.40;99.90;;;;;;6192691;23;20017;-92
2023/05/06 14:14:57;;;;;;;15.27;10.93;;;16.40;99.90;;;;;;6190707;23;20020;-96
2023/05/06 14:17:23;;;;;;;14.60;11.73;;;16.50;99.90;;;;;;6167335;23;20021;-96
2023/05/06 14:19:51;;;;;;;15.50;12.65;;;16.50;99.90;;;;;;6164803;23;20020;-94
2023/05/06 14:22:17;;;;;;;19.08;13.73;;;16.50;99.90;;;;;;6164313;23;20027;-94
2023/05/06 14:24:56;;;;;;;;;;;;;;;;;;;;;
2023/05/06 14:27:31;;;;;;;18.65;14.63;;;16.60;99.90;;;;;;6188410;23;20017;-95
2023/05/06 14:29:57;;;;;;;18.05;15.68;;;16.50;99.90;;;;;;6162405;23;20024;-88
2023/05/06 14:32:22;;;;;;;17.10;14.52;;;16.60;99.90;;;;;;6161324;23;20360;-88
2023/05/06 14:34:50;;;;;;;16.52;14.45;;;16.60;99.90;;;;;;6162541;23;20036;-94
2023/05/06 14:37:16;;;;;;;18.50;14.07;;;16.60;99.90;;;;;;6162762;23;20017;-94
2023/05/06 14:39:44;;;;;;;19.23;14.70;;;16.60;99.90;;;;;;6161348;23;20126;-91
2023/05/06 14:49:18;;;;;;;17.20;14.52;;;16.30;99.90;;;;;;6199161;22;20046;-92
2023/05/06 14:52:06;;;;;;;;;;;;;;;;;;;;;
2023/05/06 16:19:35;;;;;;;5.40;3.50;;;18.40;99.90;;;;;;6162486;22;20283;-96
2023/05/06 16:23:06;;;;;;;7.93;4.75;;;18.50;99.90;;;;;;6150876;23;20033;-95
2023/05/06 16:26:15;;;;;;;7.90;5.38;;;18.60;99.90;;;;;;6188311;23;20342;-96
2023/05/06 16:29:23;;;;;;;9.07;6.47;;;18.50;99.90;;;;;;6155977;23;20024;-96
2023/05/06 16:33:13;;;;;;;9.77;6.88;;;18.90;99.90;;;;;;6182850;23;20392;-95
2023/05/06 16:36:21;;;;;;;8.75;6.80;;;19.00;99.90;;;;;;6097332;23;20453;-95
2023/05/06 16:40:11;;;;;;;11.15;7.70;;;18.80;99.90;;;;;;6221363;23;20107;-95
2023/05/06 16:42:59;;;;;;;10.05;7.05;;;18.70;99.90;;;;;;6236589;22;20023;-94
2023/05/06 17:04:27;;;;;;;;;;;;;;;;;;;;;
2023/05/06 17:07:48;;;;;;;10.05;6.38;;;17.20;99.90;;;;;;6171039;23;20277;-96
2023/05/06 17:10:33;;;;;;;6.22;4.53;;;17.10;99.90;;;;;;6216159;23;20019;-96
2023/05/06 17:13:26;;;;;;;6.43;3.90;;;16.90;99.90;;;;;;6192394;23;20016;-95
2023/05/06 17:20:00;;;;;;;4.72;2.85;;;16.50;99.90;;;;;;6218117;23;20059;-95
2023/05/06 17:22:52;;;;;;;4.70;2.10;;;16.50;99.90;;;;;;6189762;23;20062;-96
2023/05/06 17:25:42;;;;;;;4.68;1.85;;;16.40;99.90;;;;;;6170126;23;20020;-96
2023/05/06 17:29:05;;;;;;;3.97;1.67;;;16.30;99.90;;;;;;6188804;23;20448;-96
2023/05/06 17:31:48;;;;;;;;;;;;;;;;;;;;;
2023/05/06 17:35:01;;;;;;;4.00;2.30;;;16.00;99.90;;;;;;6214605;23;20020;-95
2023/05/06 17:37:53;;;;;;;4.65;2.30;;;15.80;99.90;;;;;;6190736;23;20024;-95
2023/05/06 17:41:25;;;;;;;8.30;3.15;;;16.20;99.90;;;;;;6191643;23;20074;-95
2023/05/06 17:48:02;;;;;;;7.53;4.07;;;15.70;99.90;;;;;;5986325;23;20021;-96
2023/05/06 17:51:01;;;;;;;7.22;4.68;;;15.60;99.90;;;;;;6099030;23;20109;-96
2023/05/06 17:53:56;;;;;;;10.10;6.15;;;15.70;99.90;;;;;;6122827;23;20026;-95
2023/05/06 17:56:41;;;;;;;9.20;6.45;;;15.10;99.90;;;;;;6164173;23;20016;-96
2023/05/06 17:59:49;;;;;;;9.38;7.10;;;15.80;99.90;;;;;;6189176;22;20042;-96
2023/05/06 18:02:48;;;;;;;12.63;7.50;;;15.70;99.90;;;;;;6151934;23;20026;-96